Time;durP1;ratioP1;P1;durP2;ratioP2;P2;SDS_P1;SDS_P2;PMS_P1;PMS_P2;Temp;Humidity;BMP_temperature;BMP_pressure;BME280_temperature;BME280_humidity;BME280_pressure;Samples;Min_cycle;Max_cycle;Signal;HPM_P1;HPM_P2
2022/07/01 00:01:58;;;;;;;2.40;1.20;;;15.50;99.90;;;;;;4982690;28;20168;-71
2022/07/01 00:04:26;;;;;;;3.40;1.27;;;15.50;99.90;;;;;;4999012;28;20120;-71
2022/07/01 00:06:54;;;;;;;8.63;1.70;;;15.50;99.90;;;;;;4999078;28;20050;-71
2022/07/01 00:09:21;;;;;;;5.38;1.30;;;15.50;99.90;;;;;;5016481;28;20029;-72
2022/07/01 00:11:47;;;;;;;6.85;1.83;;;15.60;99.90;;;;;;4999093;28;20475;-72
2022/07/01 00:14:12;;;;;;;3.22;1.25;;;15.60;99.90;;;;;;4999174;28;20046;-71
2022/07/01 00:16:38;;;;;;;3.67;1.00;;;15.50;99.90;;;;;;4998156;28;20038;-71
2022/07/01 00:19:04;;;;;;;2.92;1.20;;;15.70;99.90;;;;;;4999023;28;20038;-71
2022/07/01 00:21:31;;;;;;;2.95;1.20;;;15.70;99.90;;;;;;5016101;28;20045;-71
2022/07/01 00:23:56;;;;;;;3.10;1.08;;;15.70;99.90;;;;;;4998741;28;20045;-71
2022/07/01 00:26:22;;;;;;;3.35;1.60;;;15.70;99.90;;;;;;5015616;28;20048;-72
2022/07/01 00:28:48;;;;;;;3.90;0.80;;;15.80;99.90;;;;;;4998770;28;20044;-72
2022/07/01 00:31:14;;;;;;;3.70;1.50;;;15.80;99.90;;;;;;4998880;28;20046;-71
2022/07/01 00:33:39;;;;;;;4.82;1.05;;;15.80;99.90;;;;;;4998703;28;20037;-72
2022/07/01 00:36:08;;;;;;;1.50;0.90;;;15.70;99.90;;;;;;5016291;28;20044;-71
2022/07/01 00:38:33;;;;;;;3.60;1.05;;;15.80;99.90;;;;;;4998515;28;20080;-73
2022/07/01 00:40:59;;;;;;;4.57;1.10;;;15.70;99.90;;;;;;5015950;28;20077;-71
2022/07/01 00:43:25;;;;;;;3.83;1.20;;;15.60;99.90;;;;;;5016001;28;20362;-72
2022/07/01 00:45:55;;;;;;;5.10;1.00;;;15.70;99.90;;;;;;5015820;28;20084;-72
2022/07/01 00:48:24;;;;;;;2.63;1.30;;;15.70;99.90;;;;;;4998434;28;20045;-71
2022/07/01 00:50:50;;;;;;;3.30;1.30;;;15.80;99.90;;;;;;5015655;28;20046;-72
2022/07/01 00:53:16;;;;;;;3.67;1.00;;;15.70;99.90;;;;;;5015801;28;20060;-71
2022/07/01 00:55:42;;;;;;;3.03;1.00;;;15.70;99.90;;;;;;4998047;28;20042;-72
2022/07/01 00:58:08;;;;;;;2.67;0.90;;;15.70;99.90;;;;;;4998235;28;20122;-72
2022/07/01 01:00:35;;;;;;;6.07;0.95;;;15.80;99.90;;;;;;4998565;28;20474;-71
2022/07/01 01:03:01;;;;;;;6.25;1.45;;;15.70;99.90;;;;;;4998178;28;20064;-72
2022/07/01 01:05:27;;;;;;;2.72;0.98;;;15.70;99.90;;;;;;4997610;28;20137;-71
2022/07/01 01:07:53;;;;;;;2.55;1.15;;;15.70;99.90;;;;;;4998858;28;20053;-72
2022/07/01 01:10:19;;;;;;;1.90;0.80;;;15.60;99.90;;;;;;4981868;28;20049;-71
2022/07/01 01:12:45;;;;;;;2.47;1.30;;;15.60;99.90;;;;;;4995814;28;20054;-72
2022/07/01 01:15:17;;;;;;;3.83;1.23;;;15.70;99.90;;;;;;4994730;28;20367;-71
2022/07/01 01:17:43;;;;;;;2.60;1.23;;;15.70;99.90;;;;;;4995572;28;20100;-72
2022/07/01 01:20:14;;;;;;;3.05;1.60;;;15.60;99.90;;;;;;4978113;28;20470;-72
2022/07/01 01:22:40;;;;;;;3.28;1.35;;;15.60;99.90;;;;;;4995741;28;20038;-72
2022/07/01 01:25:05;;;;;;;1.33;1.00;;;15.60;99.90;;;;;;4978970;28;20049;-72
2022/07/01 01:27:31;;;;;;;2.70;1.17;;;15.60;99.90;;;;;;5015184;28;20069;-72
2022/07/01 01:29:57;;;;;;;1.48;0.70;;;15.60;99.90;;;;;;4981690;28;20057;-71
2022/07/01 01:32:22;;;;;;;7.13;1.15;;;15.50;99.90;;;;;;5015185;28;20045;-72
2022/07/01 01:34:48;;;;;;;3.90;0.88;;;15.50;99.90;;;;;;5015134;28;20447;-71
2022/07/01 01:37:13;;;;;;;1.58;0.82;;;15.50;99.90;;;;;;4997930;28;20047;-71
2022/07/01 01:39:39;;;;;;;2.72;0.90;;;15.50;99.90;;;;;;4981922;28;20046;-71
2022/07/01 01:42:05;;;;;;;3.15;1.17;;;15.60;99.90;;;;;;4996906;28;20073;-71
2022/07/01 01:44:31;;;;;;;1.48;0.82;;;15.50;99.90;;;;;;4997897;28;20038;-71
2022/07/01 01:46:57;;;;;;;1.88;0.90;;;15.40;99.90;;;;;;4997640;28;20045;-71
2022/07/01 01:49:23;;;;;;;2.67;1.08;;;15.40;99.90;;;;;;4997606;28;20038;-71
2022/07/01 01:51:48;;;;;;;2.90;0.73;;;15.40;99.90;;;;;;4997477;28;20076;-71
2022/07/01 01:54:14;;;;;;;2.25;1.02;;;15.50;99.90;;;;;;4998044;28;20108;-71
2022/07/01 01:56:40;;;;;;;2.70;0.90;;;15.40;99.90;;;;;;4996993;28;20041;-72
2022/07/01 01:59:06;;;;;;;5.57;1.23;;;15.40;99.90;;;;;;5015038;28;20451;-72
2022/07/01 02:01:33;;;;;;;4.28;1.10;;;15.40;99.90;;;;;;4995623;28;20120;-72
2022/07/01 02:03:58;;;;;;;2.70;1.13;;;15.40;99.90;;;;;;5014649;28;20046;-72
2022/07/01 02:06:25;;;;;;;3.25;1.00;;;15.50;99.90;;;;;;4981127;28;20053;-71
2022/07/01 02:08:51;;;;;;;2.03;1.00;;;15.40;99.90;;;;;;4997285;28;20049;-72
2022/07/01 02:11:17;;;;;;;2.60;0.90;;;15.50;99.90;;;;;;5014920;28;20053;-71
2022/07/01 02:13:44;;;;;;;3.00;1.35;;;15.50;99.90;;;;;;4997645;28;20037;-71
2022/07/01 02:16:10;;;;;;;1.88;1.00;;;15.50;99.90;;;;;;4981298;28;20037;-71
2022/07/01 02:18:36;;;;;;;2.08;1.20;;;15.50;99.90;;;;;;5017684;28;20053;-72
2022/07/01 02:21:04;;;;;;;1.73;1.08;;;15.40;99.90;;;;;;5001068;28;20045;-71
2022/07/01 02:23:30;;;;;;;3.30;1.50;;;15.40;99.90;;;;;;4985271;28;20414;-71
2022/07/01 02:25:55;;;;;;;1.85;1.05;;;15.60;99.90;;;;;;5001595;28;20073;-71
2022/07/01 02:28:22;;;;;;;2.28;1.08;;;15.40;99.90;;;;;;5018540;28;20044;-71
2022/07/01 02:30:48;;;;;;;2.42;1.20;;;15.40;99.90;;;;;;4981562;28;20369;-71
2022/07/01 02:33:13;;;;;;;3.83;1.70;;;15.40;99.90;;;;;;5018361;28;20340;-71
2022/07/01 02:35:40;;;;;;;2.13;1.08;;;15.40;99.90;;;;;;5001049;28;20045;-72
2022/07/01 02:38:10;;;;;;;4.10;1.35;;;15.40;99.90;;;;;;5001240;28;20092;-70
2022/07/01 02:40:39;;;;;;;2.05;1.00;;;15.40;99.90;;;;;;5018365;28;20081;-72
2022/07/01 02:43:06;;;;;;;2.47;1.25;;;15.40;99.90;;;;;;5018003;28;20446;-72
2022/07/01 02:45:32;;;;;;;4.30;1.45;;;15.30;99.90;;;;;;5017753;28;20346;-71
2022/07/01 02:47:58;;;;;;;2.08;1.20;;;15.30;99.90;;;;;;5018157;28;20034;-71
2022/07/01 02:50:23;;;;;;;3.15;1.13;;;15.30;99.90;;;;;;5017811;28;20061;-71
2022/07/01 02:52:49;;;;;;;4.05;1.23;;;15.20;99.90;;;;;;5001023;28;20038;-72
2022/07/01 02:55:15;;;;;;;2.83;1.42;;;15.20;99.90;;;;;;5000914;28;20548;-72
2022/07/01 02:57:42;;;;;;;6.13;1.75;;;15.20;99.90;;;;;;5000106;28;20053;-70
2022/07/01 03:00:11;;;;;;;4.53;1.23;;;15.10;99.90;;;;;;5000591;28;20058;-71
2022/07/01 03:02:36;;;;;;;5.10;1.27;;;15.20;99.90;;;;;;5000239;28;20077;-71
2022/07/01 03:05:03;;;;;;;3.30;1.45;;;15.10;99.90;;;;;;5000807;28;20445;-71
2022/07/01 03:07:29;;;;;;;2.88;1.60;;;15.10;99.90;;;;;;5000128;28;20054;-71
2022/07/01 03:09:55;;;;;;;3.75;1.50;;;15.10;99.90;;;;;;5000242;28;20459;-71
2022/07/01 03:12:29;;;;;;;2.58;1.23;;;15.00;99.90;;;;;;5000235;28;20048;-72
2022/07/01 03:15:00;;;;;;;3.72;1.25;;;15.10;99.90;;;;;;5017160;28;20038;-71
2022/07/01 03:17:28;;;;;;;3.83;1.48;;;15.00;99.90;;;;;;5017452;28;20045;-72
2022/07/01 03:19:54;;;;;;;4.50;1.60;;;15.00;99.90;;;;;;5000267;28;20056;-70
2022/07/01 03:22:22;;;;;;;3.42;1.67;;;14.90;99.90;;;;;;4999797;28;20050;-71
2022/07/01 03:24:49;;;;;;;3.83;1.55;;;15.10;99.90;;;;;;4983061;28;20340;-71
2022/07/01 03:27:15;;;;;;;3.10;1.63;;;15.00;99.90;;;;;;4999638;28;20045;-71
2022/07/01 03:29:41;;;;;;;4.93;1.60;;;14.90;99.90;;;;;;4999046;28;20046;-72
2022/07/01 03:32:09;;;;;;;2.78;1.60;;;14.90;99.90;;;;;;5017148;28;20080;-72
2022/07/01 03:34:43;;;;;;;3.05;2.03;;;14.90;99.90;;;;;;4983856;28;20107;-70
2022/07/01 03:37:10;;;;;;;4.22;1.98;;;15.00;99.90;;;;;;5016532;28;20053;-72
2022/07/01 03:39:37;;;;;;;11.15;1.88;;;15.00;99.90;;;;;;4999734;28;20046;-72
2022/07/01 03:42:04;;;;;;;5.00;2.30;;;15.00;99.90;;;;;;4999616;28;20462;-72
2022/07/01 03:44:30;;;;;;;3.58;1.77;;;15.10;99.90;;;;;;4999226;28;20064;-72
2022/07/01 03:46:55;;;;;;;4.07;1.73;;;15.10;99.90;;;;;;5016906;28;20454;-70
2022/07/01 03:49:24;;;;;;;6.05;1.90;;;15.10;99.90;;;;;;5016956;28;20490;-71
2022/07/01 03:51:50;;;;;;;5.78;2.45;;;15.00;99.90;;;;;;5016470;28;20466;-72
2022/07/01 03:54:32;;;;;;;2.60;1.67;;;15.10;99.90;;;;;;4999359;28;20129;-71
2022/07/01 03:57:05;;;;;;;3.90;1.75;;;15.10;99.90;;;;;;4999335;28;20125;-71
2022/07/01 03:59:32;;;;;;;;;;;15.10;99.90;;;;;;5016923;28;20033;-71
2022/07/01 04:01:59;;;;;;;3.35;1.70;;;15.20;99.90;;;;;;5016756;28;19918;-71
2022/07/01 04:04:26;;;;;;;15.32;2.13;;;15.10;99.90;;;;;;4999456;28;20125;-71
2022/07/01 04:07:00;;;;;;;4.90;2.38;;;15.10;99.90;;;;;;5016455;28;20054;-71
2022/07/01 04:09:26;;;;;;;3.92;1.90;;;15.20;99.90;;;;;;4998922;28;20472;-70
2022/07/01 04:11:54;;;;;;;3.28;2.20;;;15.20;99.90;;;;;;5000294;28;20426;-71
2022/07/01 04:14:20;;;;;;;4.60;2.08;;;15.20;99.90;;;;;;4982449;28;20080;-72
2022/07/01 04:16:46;;;;;;;13.93;2.88;;;15.20;99.90;;;;;;4991152;28;20031;-73
2022/07/01 04:19:16;;;;;;;4.22;2.60;;;15.20;99.90;;;;;;5011874;28;20037;-73
2022/07/01 04:24:28;;;;;;;6.55;2.53;;;15.30;99.90;;;;;;4998590;28;20042;-72
2022/07/01 04:26:53;;;;;;;4.80;2.92;;;15.20;99.90;;;;;;4993756;28;20074;-72
2022/07/01 04:29:22;;;;;;;5.35;3.20;;;15.30;99.90;;;;;;4986631;28;20072;-72
2022/07/01 04:31:50;;;;;;;6.05;3.75;;;15.30;99.90;;;;;;4976299;28;20061;-71
2022/07/01 04:34:16;;;;;;;7.05;4.05;;;15.30;99.90;;;;;;4997811;28;20084;-70
2022/07/01 04:36:42;;;;;;;5.72;3.90;;;15.30;99.90;;;;;;4997140;28;20052;-70
2022/07/01 04:39:10;;;;;;;8.38;4.55;;;15.40;99.90;;;;;;4980236;28;20056;-69
2022/07/01 04:44:20;;;;;;;9.02;4.95;;;15.40;99.90;;;;;;4999143;28;20138;-72
2022/07/01 04:46:46;;;;;;;8.50;5.07;;;15.40;99.90;;;;;;4988454;28;20045;-71
2022/07/01 04:49:12;;;;;;;7.65;4.75;;;15.40;99.90;;;;;;4977660;28;20045;-71
2022/07/01 04:51:37;;;;;;;8.82;5.10;;;15.50;99.90;;;;;;4996969;28;20070;-69
2022/07/01 04:54:05;;;;;;;12.25;5.72;;;15.50;99.90;;;;;;5013356;28;20030;-70
2022/07/01 04:56:33;;;;;;;9.23;5.22;;;15.50;99.90;;;;;;4993995;28;20049;-71
2022/07/01 04:58:59;;;;;;;14.80;7.15;;;15.60;99.90;;;;;;5014578;28;20056;-70
2022/07/01 05:01:25;;;;;;;13.80;6.55;;;15.50;99.90;;;;;;4997835;28;20332;-70
2022/07/01 05:03:51;;;;;;;13.63;7.45;;;15.50;99.90;;;;;;4996796;28;20085;-71
2022/07/01 05:06:17;;;;;;;13.43;7.78;;;15.60;99.90;;;;;;5010144;28;20453;-70
2022/07/01 05:08:46;;;;;;;14.50;8.43;;;15.50;99.90;;;;;;4992691;28;20130;-69
2022/07/01 05:11:12;;;;;;;14.15;8.35;;;15.50;99.90;;;;;;4991241;28;20037;-71
2022/07/01 05:13:38;;;;;;;16.80;8.50;;;15.60;99.90;;;;;;5014341;28;20363;-71
2022/07/01 05:16:05;;;;;;;16.20;9.27;;;15.60;99.90;;;;;;4993460;28;20111;-71
2022/07/01 05:23:59;;;;;;;19.63;10.05;;;15.60;99.90;;;;;;5004015;28;20363;-70
2022/07/01 05:26:25;;;;;;;16.40;9.13;;;15.80;99.90;;;;;;4994011;28;20053;-71
2022/07/01 05:28:54;;;;;;;14.68;9.05;;;15.70;99.90;;;;;;4997496;28;20056;-71
2022/07/01 05:31:20;;;;;;;15.38;8.93;;;15.80;99.90;;;;;;5015410;28;20057;-70
2022/07/01 05:33:48;;;;;;;18.20;9.95;;;15.80;99.90;;;;;;4990444;28;20077;-71
2022/07/01 05:36:13;;;;;;;14.65;9.88;;;15.90;99.90;;;;;;5014639;28;20085;-70
2022/07/01 05:38:39;;;;;;;14.38;9.88;;;15.90;99.90;;;;;;4991911;28;20065;-70
2022/07/01 05:41:06;;;;;;;18.58;10.38;;;15.90;99.90;;;;;;4990215;28;20046;-72
2022/07/01 05:43:31;;;;;;;15.68;9.98;;;16.00;99.90;;;;;;5013400;28;20045;-69
2022/07/01 05:45:57;;;;;;;16.13;9.27;;;16.10;99.90;;;;;;5007402;28;20504;-70
2022/07/01 05:48:23;;;;;;;18.80;10.95;;;16.10;99.90;;;;;;4989492;28;20107;-70
2022/07/01 05:50:50;;;;;;;19.02;9.75;;;16.10;99.90;;;;;;5012472;28;20434;-70
2022/07/01 05:53:16;;;;;;;16.73;10.40;;;16.20;99.90;;;;;;5013561;28;20385;-69
2022/07/01 05:55:42;;;;;;;16.45;10.98;;;16.20;99.90;;;;;;5017479;28;20116;-70
2022/07/01 05:58:08;;;;;;;19.40;10.75;;;16.30;99.90;;;;;;5000743;28;20060;-70
2022/07/01 06:00:34;;;;;;;18.70;10.90;;;16.40;99.90;;;;;;5018005;28;20046;-70
2022/07/01 06:03:00;;;;;;;19.48;11.65;;;16.40;99.90;;;;;;5018472;28;20469;-69
2022/07/01 06:05:26;;;;;;;21.52;11.38;;;16.60;99.90;;;;;;5000008;28;20082;-70
2022/07/01 06:07:51;;;;;;;23.85;11.52;;;16.70;99.90;;;;;;5000875;28;20089;-70
2022/07/01 06:10:17;;;;;;;19.55;11.07;;;16.80;99.90;;;;;;5001158;28;20045;-72
2022/07/01 06:12:43;;;;;;;18.33;10.68;;;16.90;99.90;;;;;;5018220;28;20055;-69
2022/07/01 06:15:11;;;;;;;20.70;11.90;;;16.90;99.90;;;;;;5000039;28;20822;-69
2022/07/01 06:17:40;;;;;;;21.50;12.07;;;17.00;99.90;;;;;;4984490;28;20057;-69
2022/07/01 06:20:07;;;;;;;20.02;12.10;;;17.00;99.90;;;;;;5018514;28;20046;-70
2022/07/01 06:22:33;;;;;;;26.30;12.07;;;17.00;99.90;;;;;;5017640;28;20483;-71
2022/07/01 06:24:59;;;;;;;20.42;11.32;;;17.00;99.90;;;;;;5017822;28;20052;-72
2022/07/01 06:27:25;;;;;;;24.25;13.00;;;17.10;99.90;;;;;;5000319;28;20057;-72
2022/07/01 06:29:51;;;;;;;19.02;12.18;;;17.10;99.90;;;;;;5000776;28;20386;-71
2022/07/01 06:32:16;;;;;;;17.88;11.20;;;17.10;99.90;;;;;;5000088;28;20089;-71
2022/07/01 06:34:42;;;;;;;17.73;11.68;;;17.20;99.90;;;;;;5014792;28;20363;-71
2022/07/01 06:37:08;;;;;;;17.42;10.93;;;17.20;99.90;;;;;;5005925;28;20129;-71
2022/07/01 06:39:33;;;;;;;19.58;11.32;;;17.30;99.90;;;;;;5000212;28;20069;-71
2022/07/01 06:41:59;;;;;;;17.23;11.75;;;17.40;99.90;;;;;;5000238;28;20046;-72
2022/07/01 06:44:25;;;;;;;16.42;11.00;;;17.40;99.90;;;;;;5018627;28;20143;-72
2022/07/01 06:46:50;;;;;;;18.00;11.52;;;17.40;99.90;;;;;;5017162;28;20053;-72
2022/07/01 06:49:16;;;;;;;16.40;11.50;;;17.40;99.90;;;;;;4994811;28;20466;-71
2022/07/01 06:51:41;;;;;;;19.77;12.07;;;17.40;99.90;;;;;;4983517;28;20475;-72
2022/07/01 06:54:07;;;;;;;18.70;11.18;;;17.50;99.90;;;;;;5017058;28;20062;-71
2022/07/01 06:56:33;;;;;;;17.67;10.73;;;17.70;99.90;;;;;;5016756;28;20077;-72
2022/07/01 06:58:58;;;;;;;18.00;10.85;;;17.70;99.90;;;;;;5016673;28;20469;-71
2022/07/01 07:01:24;;;;;;;19.45;11.30;;;17.80;99.90;;;;;;5000330;28;20109;-72
2022/07/01 07:03:50;;;;;;;19.33;11.57;;;17.80;99.90;;;;;;4998248;28;20077;-72
2022/07/01 07:06:16;;;;;;;16.60;10.27;;;17.70;99.90;;;;;;4999248;28;20045;-72
2022/07/01 07:08:42;;;;;;;19.45;11.40;;;17.70;99.90;;;;;;4999621;28;20058;-72
2022/07/01 07:11:08;;;;;;;16.17;10.82;;;17.80;99.90;;;;;;5016099;28;20046;-73
2022/07/01 07:13:35;;;;;;;14.95;10.48;;;17.80;99.90;;;;;;4999639;28;20105;-72
2022/07/01 07:16:01;;;;;;;17.00;10.18;;;17.70;99.90;;;;;;4999296;28;20054;-71
2022/07/01 07:18:27;;;;;;;16.73;10.85;;;17.90;99.90;;;;;;4999586;28;20057;-72
2022/07/01 07:20:52;;;;;;;14.73;10.57;;;17.80;99.90;;;;;;5017251;28;20469;-71
2022/07/01 07:23:18;;;;;;;16.15;10.70;;;17.80;99.90;;;;;;5016705;28;20053;-72
2022/07/01 07:25:43;;;;;;;18.52;11.20;;;17.80;99.90;;;;;;4999756;28;20081;-72
2022/07/01 07:28:09;;;;;;;16.48;10.15;;;17.70;99.90;;;;;;5016576;28;20046;-71
2022/07/01 07:30:35;;;;;;;14.45;10.68;;;17.50;99.90;;;;;;5016006;28;20450;-71
2022/07/01 07:33:01;;;;;;;16.30;10.63;;;17.50;99.90;;;;;;4999175;28;20057;-71
2022/07/01 07:35:26;;;;;;;18.27;10.57;;;17.70;99.90;;;;;;4998848;28;20054;-71
2022/07/01 07:37:52;;;;;;;15.80;10.45;;;17.80;99.90;;;;;;4998938;28;20458;-71
2022/07/01 07:40:20;;;;;;;14.60;10.05;;;17.80;99.90;;;;;;5016737;28;20049;-71
2022/07/01 07:42:47;;;;;;;14.80;9.93;;;17.70;99.90;;;;;;5016213;28;20422;-71
2022/07/01 07:45:14;;;;;;;16.10;10.75;;;17.70;99.90;;;;;;4998911;28;20066;-72
2022/07/01 07:47:43;;;;;;;18.63;10.85;;;17.70;99.90;;;;;;4998437;28;20058;-71
2022/07/01 07:50:10;;;;;;;15.35;10.38;;;17.60;99.90;;;;;;4999011;28;20089;-71
2022/07/01 07:52:35;;;;;;;15.38;10.40;;;17.60;99.90;;;;;;4997856;28;20114;-71
2022/07/01 07:55:02;;;;;;;16.77;10.27;;;17.60;99.90;;;;;;5013490;28;20057;-71
2022/07/01 07:57:27;;;;;;;16.13;9.95;;;17.70;99.90;;;;;;5016159;28;20046;-70
2022/07/01 07:59:53;;;;;;;15.68;9.77;;;17.80;99.90;;;;;;4999213;28;20063;-71
2022/07/01 08:02:19;;;;;;;15.93;10.27;;;17.90;99.90;;;;;;4982879;28;20054;-71
2022/07/01 08:04:44;;;;;;;11.93;9.13;;;18.20;99.90;;;;;;5018317;28;20368;-73
2022/07/01 08:07:10;;;;;;;16.33;9.77;;;18.50;99.90;;;;;;4998852;28;20050;-72
2022/07/01 08:09:35;;;;;;;17.50;9.32;;;18.50;99.90;;;;;;5016241;28;20362;-73
2022/07/01 08:12:02;;;;;;;14.30;9.35;;;18.40;99.90;;;;;;5016081;28;20597;-73
2022/07/01 08:14:28;;;;;;;22.50;10.23;;;18.60;99.90;;;;;;4998023;28;20162;-70
2022/07/01 08:16:53;;;;;;;15.38;9.00;;;18.50;99.90;;;;;;4981498;28;20089;-70
2022/07/01 08:19:19;;;;;;;14.65;9.38;;;18.50;99.90;;;;;;4999307;28;20155;-71
2022/07/01 08:21:45;;;;;;;17.13;8.65;;;18.60;99.90;;;;;;4982216;28;20056;-71
2022/07/01 08:24:10;;;;;;;10.57;7.93;;;18.70;99.90;;;;;;4998450;28;20053;-71
2022/07/01 08:26:36;;;;;;;13.05;7.95;;;19.00;99.90;;;;;;5015336;28;20113;-71
2022/07/01 08:29:02;;;;;;;12.80;8.43;;;19.10;99.90;;;;;;5014793;28;20042;-71
2022/07/01 08:31:27;;;;;;;14.07;7.15;;;19.10;99.90;;;;;;5015283;28;20041;-71
2022/07/01 08:33:53;;;;;;;13.65;8.32;;;19.00;99.90;;;;;;4997783;28;20057;-71
2022/07/01 08:36:18;;;;;;;11.68;7.47;;;19.10;99.90;;;;;;5015518;28;20121;-71
2022/07/01 08:38:44;;;;;;;10.75;6.65;;;19.20;99.90;;;;;;4998496;28;20117;-71
2022/07/01 08:41:12;;;;;;;12.10;6.68;;;19.40;99.90;;;;;;5015001;28;20049;-71
2022/07/01 08:43:38;;;;;;;10.77;6.38;;;19.40;99.90;;;;;;5015248;28;20064;-71
2022/07/01 08:46:04;;;;;;;12.38;6.90;;;19.90;99.90;;;;;;5010336;28;20526;-71
2022/07/01 08:48:30;;;;;;;10.00;5.57;;;20.20;99.90;;;;;;4992984;28;20097;-70
2022/07/01 08:50:55;;;;;;;9.15;5.53;;;20.40;99.90;;;;;;4993761;28;20093;-72
2022/07/01 08:53:21;;;;;;;9.20;5.20;;;20.60;99.90;;;;;;5014912;28;20422;-72
2022/07/01 08:58:31;;;;;;;9.75;5.22;;;21.50;99.90;;;;;;4997357;28;20049;-72
2022/07/01 09:01:15;;;;;;;8.00;4.40;;;22.20;99.90;;;;;;4998105;28;20046;-71
2022/07/01 09:03:41;;;;;;;7.97;4.18;;;22.60;99.90;;;;;;5014869;28;20038;-74
2022/07/01 09:06:18;;;;;;;5.40;4.00;;;22.70;99.90;;;;;;5015273;28;20061;-73
2022/07/01 09:08:46;;;;;;;7.28;4.43;;;23.00;99.90;;;;;;5010944;28;20077;-72
2022/07/01 09:11:16;;;;;;;6.03;3.80;;;22.90;99.90;;;;;;4997634;28;20085;-72
2022/07/01 09:13:43;;;;;;;10.45;4.30;;;23.50;99.90;;;;;;5015242;28;20173;-71
2022/07/01 09:16:16;;;;;;;6.80;4.05;;;23.90;99.90;;;;;;5014989;28;20459;-71
2022/07/01 09:19:00;;;;;;;4.78;2.90;;;24.30;99.90;;;;;;5014590;28;20047;-72
2022/07/01 09:21:30;;;;;;;5.07;3.40;;;24.60;99.90;;;;;;5014626;28;20050;-71
2022/07/01 09:24:01;;;;;;;6.32;3.08;;;24.80;99.90;;;;;;5014491;28;20076;-70
2022/07/01 09:26:27;;;;;;;6.22;2.80;;;24.90;99.90;;;;;;5014266;28;20076;-72
2022/07/01 09:28:57;;;;;;;5.88;2.55;;;24.90;99.90;;;;;;5014201;28;20042;-70
2022/07/01 09:31:33;;;;;;;4.18;2.20;;;24.80;99.90;;;;;;4997924;28;20073;-69
2022/07/01 09:34:04;;;;;;;6.97;2.63;;;24.30;99.90;;;;;;4996833;28;20438;-71
2022/07/01 09:36:29;;;;;;;5.10;2.50;;;24.30;99.90;;;;;;4977933;28;20100;-70
2022/07/01 09:38:55;;;;;;;4.63;2.70;;;24.10;99.90;;;;;;4993327;28;20137;-70
2022/07/01 09:41:23;;;;;;;9.25;3.17;;;23.90;99.90;;;;;;5014236;28;20042;-71
2022/07/01 09:43:49;;;;;;;5.30;3.15;;;23.70;99.90;;;;;;4996861;28;20049;-69
2022/07/01 09:46:15;;;;;;;12.30;4.25;;;23.40;99.90;;;;;;4996114;28;20046;-70
2022/07/01 09:48:40;;;;;;;5.85;2.90;;;23.10;99.90;;;;;;5014051;28;20071;-70
2022/07/01 09:51:07;;;;;;;7.93;3.40;;;23.00;99.90;;;;;;4996870;28;20080;-70
2022/07/01 09:53:33;;;;;;;6.75;3.15;;;22.70;99.90;;;;;;5014178;28;20045;-70
2022/07/01 09:55:59;;;;;;;5.68;2.53;;;22.40;99.90;;;;;;5014432;28;20056;-71
2022/07/01 09:58:25;;;;;;;5.72;2.40;;;22.40;99.90;;;;;;4996661;28;20046;-70
2022/07/01 10:00:55;;;;;;;4.78;2.45;;;22.60;99.90;;;;;;4986288;28;20105;-70
2022/07/01 10:03:21;;;;;;;4.10;2.47;;;23.00;99.90;;;;;;5005444;28;20041;-70
2022/07/01 10:05:54;;;;;;;5.63;2.45;;;23.10;99.90;;;;;;4983352;28;20422;-69
2022/07/01 10:08:29;;;;;;;;;;;23.20;99.90;;;;;;4994324;28;20050;-68
2022/07/01 10:11:19;;;;;;;4.40;2.30;;;23.10;99.90;;;;;;4997446;28;19933;-69
2022/07/01 10:13:45;;;;;;;7.18;2.10;;;22.90;99.90;;;;;;4996722;28;20451;-70
2022/07/01 10:16:12;;;;;;;7.70;2.40;;;23.00;99.90;;;;;;5014633;28;20117;-70
2022/07/01 10:18:37;;;;;;;3.42;1.95;;;22.80;99.90;;;;;;4997336;28;20053;-69
2022/07/01 10:21:04;;;;;;;4.28;2.40;;;22.80;99.90;;;;;;4996518;28;20042;-71
2022/07/01 10:23:41;;;;;;;5.70;2.35;;;23.10;99.90;;;;;;4996654;28;20359;-70
2022/07/01 10:26:07;;;;;;;3.80;2.17;;;23.50;99.90;;;;;;4996992;28;20370;-70
2022/07/01 10:28:41;;;;;;;7.63;2.88;;;23.70;99.90;;;;;;5013052;28;20343;-70
2022/07/01 10:31:13;;;;;;;4.13;2.63;;;23.80;99.90;;;;;;4996594;28;20058;-70
2022/07/01 10:33:46;;;;;;;3.72;2.08;;;23.70;99.90;;;;;;4996784;28;20082;-71
2022/07/01 10:36:17;;;;;;;5.57;2.45;;;23.60;99.90;;;;;;4995948;28;20053;-70
2022/07/01 10:39:00;;;;;;;4.25;2.55;;;23.50;99.90;;;;;;4998675;28;20492;-70
2022/07/01 10:41:34;;;;;;;4.70;2.40;;;23.20;99.90;;;;;;5000887;28;20072;-69
2022/07/01 10:44:07;;;;;;;6.80;3.00;;;22.90;99.90;;;;;;5010497;28;20121;-70
2022/07/01 10:46:58;;;;;;;10.00;3.45;;;22.80;99.90;;;;;;5017662;28;20406;-70
2022/07/01 10:49:36;;;;;;;5.25;2.70;;;22.90;99.90;;;;;;4984097;28;20057;-68
2022/07/01 10:52:07;;;;;;;3.35;2.10;;;23.40;99.90;;;;;;4980648;28;20061;-69
2022/07/01 10:54:36;;;;;;;6.25;2.55;;;23.40;99.90;;;;;;4999163;28;20129;-69
2022/07/01 10:57:19;;;;;;;7.00;2.70;;;23.60;99.90;;;;;;5017607;28;20054;-70
2022/07/01 11:00:08;;;;;;;7.95;2.03;;;23.60;99.90;;;;;;5017352;28;20088;-69
2022/07/01 11:02:36;;;;;;;3.42;2.03;;;23.60;99.90;;;;;;5009623;28;20054;-69
2022/07/01 11:05:05;;;;;;;5.78;1.92;;;23.30;99.90;;;;;;4999860;28;20105;-70
2022/07/01 11:07:32;;;;;;;5.45;2.15;;;23.50;99.90;;;;;;4999942;28;20089;-69
2022/07/01 11:09:59;;;;;;;6.60;2.00;;;23.60;99.90;;;;;;4999935;28;20060;-70
2022/07/01 11:12:27;;;;;;;4.28;1.75;;;23.30;99.90;;;;;;5000319;28;20056;-70
2022/07/01 11:14:55;;;;;;;5.03;2.30;;;23.60;99.90;;;;;;5000239;28;20050;-70
2022/07/01 11:17:21;;;;;;;3.65;1.90;;;23.70;99.90;;;;;;4999947;28;20054;-71
2022/07/01 11:19:58;;;;;;;4.38;2.03;;;24.10;99.90;;;;;;5017389;28;20088;-70
2022/07/01 11:22:26;;;;;;;7.80;2.22;;;24.40;99.90;;;;;;5017064;28;20042;-71
2022/07/01 11:24:53;;;;;;;4.93;2.08;;;24.40;99.90;;;;;;4999472;28;20056;-71
2022/07/01 11:27:19;;;;;;;5.55;1.60;;;24.70;99.90;;;;;;5000288;28;20453;-71
2022/07/01 11:29:45;;;;;;;4.20;1.95;;;24.80;99.90;;;;;;4999750;28;20089;-71
2022/07/01 11:32:10;;;;;;;2.72;1.65;;;24.80;99.90;;;;;;4999739;28;20052;-70
2022/07/01 11:34:37;;;;;;;11.38;1.73;;;24.20;99.90;;;;;;5016997;28;20042;-70
2022/07/01 11:40:04;;;;;;;3.97;1.13;;;23.60;99.90;;;;;;4999331;28;20096;-71
2022/07/01 11:42:30;;;;;;;3.75;0.70;;;23.00;99.20;;;;;;4999161;28;20064;-71
2022/07/01 11:44:55;;;;;;;4.72;1.00;;;22.40;99.90;;;;;;4999318;28;20053;-71
2022/07/01 11:47:25;;;;;;;3.95;0.95;;;22.20;99.90;;;;;;4999236;28;20367;-71
2022/07/01 11:49:51;;;;;;;2.65;0.90;;;21.90;99.90;;;;;;4999255;28;20073;-71
2022/07/01 11:52:18;;;;;;;4.88;1.10;;;21.60;99.90;;;;;;4999046;28;20466;-71
2022/07/01 11:54:49;;;;;;;2.78;0.95;;;21.50;99.90;;;;;;4999119;28;20045;-71
2022/07/01 11:57:17;;;;;;;2.33;0.90;;;21.20;99.90;;;;;;4999103;28;20061;-69
2022/07/01 11:59:44;;;;;;;6.40;1.20;;;21.10;99.90;;;;;;5015904;28;20038;-71
2022/07/01 12:02:13;;;;;;;5.28;1.27;;;21.00;99.90;;;;;;4998028;28;20087;-71
2022/07/01 12:04:40;;;;;;;4.80;1.33;;;21.20;99.90;;;;;;4999154;28;20092;-70
2022/07/01 12:07:06;;;;;;;4.03;0.90;;;21.40;99.90;;;;;;4998680;28;20050;-70
2022/07/01 12:09:32;;;;;;;2.60;0.90;;;21.60;99.90;;;;;;4997640;28;20470;-70
2022/07/01 12:11:58;;;;;;;2.33;1.00;;;21.90;99.90;;;;;;5018243;28;20124;-71
2022/07/01 12:14:30;;;;;;;1.77;0.80;;;22.10;99.90;;;;;;5004256;28;20089;-70
2022/07/01 12:17:08;;;;;;;1.85;1.00;;;22.20;99.90;;;;;;4998713;28;20564;-72
2022/07/01 12:19:39;;;;;;;3.17;0.95;;;22.40;99.90;;;;;;5016323;28;20085;-72
2022/07/01 12:22:12;;;;;;;4.03;1.08;;;22.90;99.90;;;;;;5016110;28;20052;-72
2022/07/01 12:24:39;;;;;;;2.75;1.20;;;23.00;99.90;;;;;;5015390;28;20046;-71
2022/07/01 12:27:06;;;;;;;1.85;0.85;;;23.10;99.90;;;;;;4998685;28;20058;-71
2022/07/01 12:29:50;;;;;;;4.53;0.80;;;23.40;99.90;;;;;;5016168;28;20108;-71
2022/07/01 12:32:28;;;;;;;4.93;1.15;;;23.60;99.90;;;;;;4998722;28;20198;-72
2022/07/01 12:34:57;;;;;;;6.07;0.95;;;23.80;99.90;;;;;;4998076;28;20153;-73
2022/07/01 12:37:35;;;;;;;5.35;0.90;;;23.90;99.90;;;;;;4992048;28;20049;-71
2022/07/01 12:40:03;;;;;;;1.88;0.65;;;24.10;99.90;;;;;;5015642;28;20125;-73
2022/07/01 12:42:34;;;;;;;3.58;0.82;;;24.40;99.90;;;;;;4998353;28;20103;-70
2022/07/01 12:45:02;;;;;;;2.50;0.77;;;24.70;99.90;;;;;;5015599;28;20042;-70
2022/07/01 12:47:30;;;;;;;3.75;0.70;;;24.80;99.90;;;;;;5015644;28;20052;-70
2022/07/01 12:50:19;;;;;;;2.58;0.70;;;24.80;99.90;;;;;;4998054;28;20400;-70
2022/07/01 12:53:05;;;;;;;2.45;0.50;;;25.00;99.60;;;;;;4997605;28;20068;-71
2022/07/01 12:55:33;;;;;;;4.22;0.80;;;24.90;98.80;;;;;;4997558;28;20057;-71
2022/07/01 12:57:59;;;;;;;3.85;0.40;;;24.80;99.30;;;;;;4997543;28;20045;-70
2022/07/01 13:00:27;;;;;;;3.10;0.70;;;24.90;99.00;;;;;;4997979;28;20116;-72
2022/07/01 13:02:55;;;;;;;3.17;0.60;;;24.80;98.50;;;;;;4997860;28;20525;-71